Time;durP1;ratioP1;P1;durP2;ratioP2;P2;SDS_P1;SDS_P2;PMS_P1;PMS_P2;Temp;Humidity;BMP_temperature;BMP_pressure;BME280_temperature;BME280_humidity;BME280_pressure;Samples;Min_cycle;Max_cycle;Signal;HPM_P1;HPM_P2
2023/05/28 00:01:55;;;;;;;76.80;2.20;;;18.80;32.10;;;;;;5033683;28;20577;-77
2023/05/28 00:04:21;;;;;;;78.63;3.27;;;18.60;33.80;;;;;;5032955;28;20212;-77
2023/05/28 00:06:50;;;;;;;76.97;2.10;;;18.50;32.30;;;;;;5033677;28;20214;-77
2023/05/28 00:09:15;;;;;;;78.77;2.87;;;18.50;34.00;;;;;;5033585;28;20415;-77
2023/05/28 00:11:42;;;;;;;77.67;2.37;;;18.30;34.50;;;;;;5033872;28;20555;-77
2023/05/28 00:14:08;;;;;;;81.37;3.00;;;18.20;33.80;;;;;;5032863;28;20595;-78
2023/05/28 00:16:35;;;;;;;78.57;3.10;;;18.10;34.40;;;;;;5033251;28;20412;-77
2023/05/28 00:19:02;;;;;;;77.10;2.17;;;17.90;34.80;;;;;;5033779;28;20256;-77
2023/05/28 00:21:27;;;;;;;78.37;2.70;;;18.00;33.40;;;;;;5033376;28;20407;-77
2023/05/28 00:23:53;;;;;;;77.40;2.20;;;17.90;34.00;;;;;;5032698;28;20419;-77
2023/05/28 00:26:19;;;;;;;77.60;2.40;;;18.00;35.30;;;;;;5033340;28;20634;-77
2023/05/28 00:28:44;;;;;;;77.70;2.50;;;17.90;34.10;;;;;;5033152;28;20172;-78
2023/05/28 00:31:11;;;;;;;78.20;2.60;;;18.00;34.80;;;;;;5033551;28;20237;-76
2023/05/28 00:33:36;;;;;;;77.90;2.43;;;18.00;35.40;;;;;;5033217;28;20184;-76
2023/05/28 00:36:02;;;;;;;77.53;2.30;;;17.90;35.40;;;;;;5032730;28;20830;-76
2023/05/28 00:38:27;;;;;;;77.90;2.20;;;17.80;35.50;;;;;;5033048;28;20177;-76
2023/05/28 00:40:54;;;;;;;78.07;2.63;;;17.70;35.20;;;;;;5033028;28;20272;-76
2023/05/28 00:43:20;;;;;;;78.40;2.67;;;17.60;35.30;;;;;;5032384;28;20197;-76
2023/05/28 00:45:48;;;;;;;79.07;2.90;;;17.70;35.10;;;;;;5032919;28;20452;-76
2023/05/28 00:48:14;;;;;;;78.60;2.40;;;17.70;35.70;;;;;;5033086;28;20411;-77
2023/05/28 00:50:40;;;;;;;78.37;2.30;;;17.60;34.70;;;;;;5033032;28;20437;-76
2023/05/28 00:53:07;;;;;;;79.23;3.17;;;17.60;34.10;;;;;;5031930;28;20421;-77
2023/05/28 00:55:32;;;;;;;78.27;2.77;;;17.60;35.60;;;;;;5031249;28;20428;-77
2023/05/28 00:58:05;;;;;;;77.80;2.33;;;17.70;35.30;;;;;;5032636;28;20470;-77
2023/05/28 01:00:35;;;;;;;77.80;2.33;;;17.70;35.00;;;;;;5040005;28;20174;-77
2023/05/28 01:03:01;;;;;;;78.40;2.70;;;17.60;36.50;;;;;;5032808;28;20787;-77
2023/05/28 01:05:26;;;;;;;78.90;2.73;;;17.60;36.70;;;;;;5032832;28;20446;-76
2023/05/28 01:07:52;;;;;;;80.17;3.70;;;17.60;35.90;;;;;;5032656;28;20407;-77
2023/05/28 01:10:18;;;;;;;79.13;2.63;;;17.60;35.80;;;;;;5031660;28;20648;-77
2023/05/28 01:12:44;;;;;;;78.90;3.07;;;17.50;36.50;;;;;;5031914;28;20194;-77
2023/05/28 01:15:10;;;;;;;78.50;2.60;;;17.50;35.50;;;;;;5032431;28;20412;-77
2023/05/28 01:17:38;;;;;;;78.47;2.80;;;17.40;36.50;;;;;;5032600;28;20443;-76
2023/05/28 01:20:13;;;;;;;78.47;2.50;;;17.40;35.90;;;;;;5032580;28;20912;-77
2023/05/28 01:22:40;;;;;;;79.30;3.03;;;17.30;36.90;;;;;;5031378;28;20538;-76
2023/05/28 01:25:10;;;;;;;78.60;2.73;;;17.20;37.00;;;;;;5032410;28;20520;-76
2023/05/28 01:27:39;;;;;;;78.20;1.97;;;17.10;38.00;;;;;;5032638;28;20395;-77
2023/05/28 01:30:08;;;;;;;78.40;2.30;;;17.10;37.10;;;;;;5032390;28;20903;-76
2023/05/28 01:32:34;;;;;;;78.70;2.30;;;17.10;37.70;;;;;;5032046;28;20424;-76
2023/05/28 01:35:00;;;;;;;78.57;2.43;;;17.00;38.00;;;;;;5031801;28;20779;-77
2023/05/28 01:37:27;;;;;;;78.20;2.00;;;17.00;38.00;;;;;;5030958;28;20616;-77
2023/05/28 01:39:53;;;;;;;78.43;2.10;;;16.80;38.70;;;;;;5032161;28;20443;-77
2023/05/28 01:42:19;;;;;;;79.40;2.47;;;16.80;38.70;;;;;;5031975;28;20435;-77
2023/05/28 01:44:46;;;;;;;78.87;2.50;;;16.80;37.90;;;;;;5031177;28;20446;-77
2023/05/28 01:47:13;;;;;;;78.97;2.60;;;16.70;38.60;;;;;;5031877;28;20407;-77
2023/05/28 01:49:39;;;;;;;79.67;2.73;;;16.60;39.80;;;;;;5040469;28;20424;-77
2023/05/28 01:52:06;;;;;;;78.97;2.43;;;16.60;38.50;;;;;;5070842;28;20509;-77
2023/05/28 01:54:32;;;;;;;79.50;2.57;;;16.60;38.50;;;;;;5071213;28;20492;-77
2023/05/28 01:56:57;;;;;;;79.90;2.80;;;16.60;38.70;;;;;;5070727;28;20428;-77
2023/05/28 01:59:23;;;;;;;78.80;2.27;;;16.60;38.50;;;;;;5072486;28;20803;-77
2023/05/28 02:01:48;;;;;;;78.90;2.13;;;16.60;38.30;;;;;;5071629;28;20214;-77
2023/05/28 02:04:14;;;;;;;79.07;2.27;;;16.50;38.40;;;;;;5070880;28;20626;-76
2023/05/28 02:06:44;;;;;;;79.00;2.40;;;16.60;39.40;;;;;;5071622;28;20206;-77
2023/05/28 02:09:10;;;;;;;78.87;2.23;;;16.50;38.50;;;;;;5071975;28;20575;-77
2023/05/28 02:11:36;;;;;;;79.37;2.40;;;16.30;37.60;;;;;;5071477;28;20463;-77
2023/05/28 02:14:03;;;;;;;79.00;2.30;;;16.30;38.20;;;;;;5070996;28;20916;-77
2023/05/28 02:16:29;;;;;;;79.10;2.60;;;16.30;39.50;;;;;;5071409;28;20163;-77
2023/05/28 02:18:55;;;;;;;79.33;2.43;;;16.20;39.70;;;;;;5071423;28;20400;-76
2023/05/28 02:21:21;;;;;;;79.57;2.30;;;16.20;38.50;;;;;;5070265;28;20414;-77
2023/05/28 02:23:48;;;;;;;79.13;2.40;;;16.10;40.20;;;;;;5070335;28;20535;-76
2023/05/28 02:26:15;;;;;;;79.87;2.57;;;16.10;39.00;;;;;;5071239;28;20536;-76
2023/05/28 02:28:44;;;;;;;80.10;2.53;;;16.10;38.50;;;;;;5071541;28;20427;-76
2023/05/28 02:31:13;;;;;;;79.40;2.40;;;16.10;38.00;;;;;;5071007;28;20508;-76
2023/05/28 02:33:41;;;;;;;79.10;2.00;;;16.10;39.80;;;;;;5069385;28;20463;-77
2023/05/28 02:36:08;;;;;;;79.53;2.27;;;15.90;40.10;;;;;;5071374;28;20482;-77
2023/05/28 02:38:33;;;;;;;80.77;3.43;;;16.00;38.00;;;;;;5072310;28;20434;-77
2023/05/28 02:40:59;;;;;;;81.43;2.70;;;16.00;38.90;;;;;;5071205;28;20971;-77
2023/05/28 02:43:25;;;;;;;79.70;2.50;;;15.90;39.50;;;;;;5070372;28;20186;-77
2023/05/28 02:45:50;;;;;;;80.60;2.67;;;15.90;38.90;;;;;;5071096;28;20199;-76
2023/05/28 02:48:16;;;;;;;80.50;2.90;;;15.80;39.60;;;;;;5071649;28;20195;-77
2023/05/28 02:50:41;;;;;;;79.90;2.47;;;15.90;39.60;;;;;;5070984;28;20640;-76
2023/05/28 02:53:07;;;;;;;79.90;2.73;;;16.00;39.50;;;;;;5070184;28;20217;-77
2023/05/28 02:55:33;;;;;;;80.23;2.80;;;16.10;39.40;;;;;;5071082;28;20169;-77
2023/05/28 02:57:58;;;;;;;79.67;2.50;;;16.20;38.40;;;;;;5069833;28;20273;-77
2023/05/28 03:00:25;;;;;;;78.97;1.87;;;16.20;38.10;;;;;;5070039;28;20173;-77
2023/05/28 03:02:50;;;;;;;79.83;2.40;;;15.90;39.70;;;;;;5069160;28;20493;-76
2023/05/28 03:05:16;;;;;;;79.57;2.37;;;15.80;39.50;;;;;;5071489;28;20875;-76
2023/05/28 03:07:42;;;;;;;79.53;2.30;;;15.80;39.60;;;;;;5071006;28;20661;-76
2023/05/28 03:10:08;;;;;;;79.00;2.13;;;15.90;38.90;;;;;;5070914;28;20168;-76
2023/05/28 03:12:33;;;;;;;80.13;2.70;;;15.90;39.50;;;;;;5069327;28;20229;-76
2023/05/28 03:14:59;;;;;;;79.27;2.30;;;15.80;39.70;;;;;;5071094;28;20498;-76
2023/05/28 03:17:25;;;;;;;79.47;2.20;;;15.80;40.00;;;;;;5070786;28;20714;-76
2023/05/28 03:19:51;;;;;;;79.60;2.57;;;15.90;40.20;;;;;;5071254;28;20184;-77
2023/05/28 03:22:16;;;;;;;79.30;2.00;;;15.90;39.70;;;;;;5071303;28;20216;-77
2023/05/28 03:24:42;;;;;;;79.50;2.33;;;15.70;40.70;;;;;;5076087;28;20215;-77
2023/05/28 03:27:07;;;;;;;80.70;2.80;;;15.80;39.50;;;;;;5071042;28;20536;-77
2023/05/28 03:29:33;;;;;;;79.10;2.10;;;16.00;40.20;;;;;;5071439;28;20188;-76
2023/05/28 03:31:59;;;;;;;79.40;2.20;;;16.00;39.40;;;;;;5070539;28;20581;-76
2023/05/28 03:34:24;;;;;;;79.10;2.07;;;15.90;38.80;;;;;;5073662;28;20173;-77
2023/05/28 03:36:50;;;;;;;79.30;2.17;;;15.80;39.40;;;;;;5074324;28;20525;-77
2023/05/28 03:39:16;;;;;;;79.87;2.50;;;15.80;39.50;;;;;;5073956;28;20183;-77
2023/05/28 03:41:44;;;;;;;80.07;2.40;;;15.80;40.30;;;;;;5074119;28;20481;-77
2023/05/28 03:44:09;;;;;;;79.63;2.30;;;15.70;39.80;;;;;;5073626;28;20168;-77
2023/05/28 03:46:35;;;;;;;79.87;2.30;;;15.50;39.80;;;;;;5074333;28;20416;-77
2023/05/28 03:49:01;;;;;;;79.80;2.20;;;15.40;41.50;;;;;;5074525;28;20675;-77
2023/05/28 03:51:27;;;;;;;80.10;2.50;;;15.40;40.60;;;;;;5074177;28;20407;-76
2023/05/28 03:53:52;;;;;;;80.07;2.40;;;15.40;41.10;;;;;;5073160;28;20525;-77
2023/05/28 03:56:21;;;;;;;79.97;2.30;;;15.50;41.00;;;;;;5074102;28;20255;-76
2023/05/28 03:58:47;;;;;;;80.37;2.30;;;15.30;42.70;;;;;;5073946;28;20233;-76
2023/05/28 04:01:12;;;;;;;80.90;2.57;;;15.30;41.50;;;;;;5073758;28;20412;-77
2023/05/28 04:03:38;;;;;;;80.20;2.40;;;15.40;41.90;;;;;;5073290;28;20742;-76
2023/05/28 04:06:04;;;;;;;80.77;2.43;;;15.40;41.70;;;;;;5073910;28;20209;-77
2023/05/28 04:08:29;;;;;;;80.10;2.17;;;15.40;41.10;;;;;;5073981;28;20215;-76
2023/05/28 04:10:55;;;;;;;80.27;2.27;;;15.40;40.50;;;;;;5072492;28;20439;-76
2023/05/28 04:13:22;;;;;;;80.97;2.67;;;15.50;41.00;;;;;;5074245;28;20196;-77
2023/05/28 04:15:47;;;;;;;81.20;2.90;;;15.60;40.20;;;;;;5073537;28;20629;-77
2023/05/28 04:18:13;;;;;;;80.80;2.33;;;15.60;40.20;;;;;;5074108;28;20414;-76
2023/05/28 04:20:39;;;;;;;80.13;2.30;;;15.60;39.50;;;;;;5073722;28;20232;-76
2023/05/28 04:23:04;;;;;;;80.50;2.30;;;15.60;39.30;;;;;;5072204;28;20512;-76
2023/05/28 04:25:31;;;;;;;80.30;2.20;;;15.70;38.40;;;;;;5073507;28;20189;-76
2023/05/28 04:27:58;;;;;;;80.83;2.50;;;15.70;39.10;;;;;;5073440;28;20180;-76
2023/05/28 04:30:23;;;;;;;80.20;1.90;;;15.80;38.90;;;;;;5073699;28;20917;-77
2023/05/28 04:32:52;;;;;;;84.50;3.53;;;15.80;38.60;;;;;;5072615;28;20434;-76
2023/05/28 04:35:19;;;;;;;81.50;2.70;;;15.80;37.80;;;;;;5078773;28;20646;-77
2023/05/28 04:37:45;;;;;;;80.53;2.30;;;15.90;37.80;;;;;;5073144;28;20408;-77
2023/05/28 04:40:14;;;;;;;80.20;2.00;;;16.00;37.90;;;;;;5073257;28;20414;-77
2023/05/28 04:42:40;;;;;;;81.10;2.97;;;15.70;37.90;;;;;;5072407;28;20487;-77
2023/05/28 04:45:07;;;;;;;80.57;2.33;;;15.90;39.70;;;;;;5071884;28;20459;-77
2023/05/28 04:47:34;;;;;;;80.87;2.43;;;16.00;39.20;;;;;;5073227;28;20838;-77
2023/05/28 04:50:03;;;;;;;80.40;2.23;;;16.00;38.70;;;;;;5072896;28;20403;-77
2023/05/28 04:52:30;;;;;;;80.77;2.43;;;16.10;39.30;;;;;;5073546;28;20922;-77
2023/05/28 04:54:56;;;;;;;81.63;2.90;;;16.20;39.10;;;;;;5072816;28;20999;-77
2023/05/28 04:57:22;;;;;;;81.17;2.40;;;16.20;38.20;;;;;;5072956;28;20491;-77
2023/05/28 04:59:49;;;;;;;84.33;3.70;;;16.30;38.20;;;;;;5072498;28;20243;-77
2023/05/28 05:02:18;;;;;;;81.03;2.40;;;16.40;40.20;;;;;;5072842;28;20862;-77
2023/05/28 05:04:44;;;;;;;80.50;2.30;;;16.40;38.30;;;;;;5072086;28;20443;-77
2023/05/28 05:07:11;;;;;;;81.20;2.60;;;16.30;38.20;;;;;;5072719;28;20466;-77
2023/05/28 05:09:37;;;;;;;81.60;2.70;;;16.30;37.60;;;;;;5072747;28;20401;-77
2023/05/28 05:12:03;;;;;;;80.47;2.20;;;16.40;38.30;;;;;;5072437;28;20435;-77
2023/05/28 05:14:28;;;;;;;80.80;2.33;;;16.50;38.40;;;;;;5072314;28;20198;-77
2023/05/28 05:16:54;;;;;;;81.20;2.73;;;16.50;37.30;;;;;;5072525;28;20262;-77
2023/05/28 05:19:19;;;;;;;80.77;2.33;;;16.70;37.60;;;;;;5072601;28;20175;-77
2023/05/28 05:21:45;;;;;;;81.60;2.47;;;16.70;37.20;;;;;;5071983;28;20577;-77
2023/05/28 05:24:10;;;;;;;82.57;3.17;;;16.70;37.30;;;;;;5071612;28;20171;-77
2023/05/28 05:26:36;;;;;;;81.20;2.40;;;16.50;38.40;;;;;;5072214;28;20179;-77
2023/05/28 05:29:02;;;;;;;81.50;2.73;;;16.70;37.60;;;;;;5072242;28;20182;-76
2023/05/28 05:31:27;;;;;;;81.50;2.47;;;16.60;37.50;;;;;;5072065;28;20164;-77
2023/05/28 05:33:53;;;;;;;84.07;3.00;;;16.20;37.30;;;;;;5071123;28;20168;-77
2023/05/28 05:36:18;;;;;;;83.93;2.87;;;16.40;38.70;;;;;;5071724;28;20179;-76
2023/05/28 05:38:45;;;;;;;81.17;2.27;;;16.50;37.80;;;;;;5072006;28;20189;-76
2023/05/28 05:41:11;;;;;;;81.00;2.60;;;16.70;36.00;;;;;;5071999;28;20223;-77
2023/05/28 05:43:37;;;;;;;81.00;2.50;;;16.40;37.00;;;;;;5071367;28;20824;-77
2023/05/28 05:46:02;;;;;;;81.20;2.80;;;16.20;37.80;;;;;;5071668;28;20550;-77
2023/05/28 05:48:28;;;;;;;81.80;2.70;;;16.30;38.20;;;;;;5072956;28;20186;-77
2023/05/28 05:50:58;;;;;;;81.07;2.70;;;16.40;37.30;;;;;;5071431;28;20630;-77
2023/05/28 05:53:24;;;;;;;82.80;3.23;;;16.30;37.20;;;;;;5069925;28;20187;-77
2023/05/28 05:55:50;;;;;;;82.57;2.90;;;16.30;39.10;;;;;;5071268;28;20406;-77
2023/05/28 05:58:16;;;;;;;80.97;2.57;;;16.20;38.70;;;;;;5071628;28;20516;-77
2023/05/28 06:00:42;;;;;;;80.97;2.53;;;16.60;36.70;;;;;;5071661;28;20425;-76
2023/05/28 06:03:07;;;;;;;80.87;2.50;;;16.60;35.80;;;;;;5070977;28;20509;-77
2023/05/28 06:05:34;;;;;;;81.70;2.40;;;16.80;36.80;;;;;;5071490;28;20507;-77
2023/05/28 06:08:00;;;;;;;80.73;2.50;;;16.90;35.50;;;;;;5071392;28;20233;-77
2023/05/28 06:10:26;;;;;;;81.50;3.10;;;16.90;36.70;;;;;;5071595;28;20411;-77
2023/05/28 06:12:52;;;;;;;80.77;2.50;;;16.90;34.70;;;;;;5070522;28;20436;-77
2023/05/28 06:15:18;;;;;;;81.50;2.70;;;16.80;35.10;;;;;;5071428;28;20168;-77
2023/05/28 06:17:44;;;;;;;80.57;2.40;;;16.70;36.60;;;;;;5071732;28;20177;-77
2023/05/28 06:20:11;;;;;;;81.00;2.77;;;16.90;37.20;;;;;;5071037;28;20409;-77
2023/05/28 06:22:36;;;;;;;80.93;2.80;;;16.90;36.90;;;;;;5070129;28;20206;-77
2023/05/28 06:25:02;;;;;;;80.77;2.33;;;16.90;35.50;;;;;;5070941;28;20969;-77
2023/05/28 06:27:28;;;;;;;80.90;2.50;;;17.10;34.80;;;;;;5070843;28;20204;-76
2023/05/28 06:29:54;;;;;;;81.90;3.23;;;17.20;34.70;;;;;;5071269;28;20179;-77
2023/05/28 06:32:19;;;;;;;81.67;2.90;;;17.30;34.50;;;;;;5070688;28;20190;-77
2023/05/28 06:34:45;;;;;;;81.00;2.67;;;17.40;34.80;;;;;;5070259;28;20686;-77
2023/05/28 06:37:12;;;;;;;81.10;2.70;;;17.10;35.40;;;;;;5070800;28;20167;-77
2023/05/28 06:39:37;;;;;;;80.30;2.30;;;17.00;35.60;;;;;;5070809;28;20186;-77
2023/05/28 06:42:03;;;;;;;82.40;3.30;;;17.10;35.10;;;;;;5071128;28;20435;-77
2023/05/28 06:44:29;;;;;;;80.57;2.30;;;17.20;35.80;;;;;;5070185;28;20669;-77
2023/05/28 06:46:54;;;;;;;80.53;2.57;;;17.30;36.00;;;;;;5071374;28;20401;-77
2023/05/28 06:49:20;;;;;;;80.70;2.50;;;18.00;36.20;;;;;;5069574;28;20176;-78
2023/05/28 06:51:46;;;;;;;80.30;2.30;;;21.00;35.50;;;;;;5070169;28;20234;-77
2023/05/28 06:54:11;;;;;;;80.20;2.30;;;18.40;32.20;;;;;;5069993;28;20186;-78
2023/05/28 06:56:37;;;;;;;82.57;2.77;;;18.50;33.40;;;;;;5071415;28;20257;-77
2023/05/28 06:59:02;;;;;;;80.97;3.00;;;18.60;30.70;;;;;;5071070;28;20202;-77
2023/05/28 07:01:28;;;;;;;81.17;3.10;;;19.20;31.60;;;;;;5070518;28;20383;-77
2023/05/28 07:03:54;;;;;;;80.70;2.80;;;19.10;30.00;;;;;;5070000;28;20640;-77
2023/05/28 07:06:19;;;;;;;80.50;2.70;;;18.70;31.40;;;;;;5069265;28;20759;-77
2023/05/28 07:08:45;;;;;;;81.47;2.80;;;18.60;33.10;;;;;;5073133;28;20170;-78
2023/05/28 07:11:12;;;;;;;80.33;2.67;;;18.80;33.10;;;;;;5074521;28;20185;-78
2023/05/28 07:13:38;;;;;;;82.80;2.70;;;19.40;33.50;;;;;;5074031;28;20222;-77
2023/05/28 07:16:04;;;;;;;80.53;2.60;;;19.40;30.80;;;;;;5074618;28;20411;-77
2023/05/28 07:18:30;;;;;;;81.10;2.77;;;18.80;33.40;;;;;;5074500;28;20443;-77
2023/05/28 07:20:56;;;;;;;80.10;2.40;;;18.80;33.30;;;;;;5074469;28;20481;-77
2023/05/28 07:23:22;;;;;;;80.93;2.63;;;19.10;32.50;;;;;;5073859;28;20263;-77
2023/05/28 07:25:47;;;;;;;82.10;2.80;;;19.30;32.80;;;;;;5075189;28;20217;-77
2023/05/28 07:28:13;;;;;;;80.23;2.57;;;19.30;33.00;;;;;;5074332;28;20209;-77
2023/05/28 07:30:41;;;;;;;80.57;2.80;;;18.90;32.80;;;;;;5074328;28;20190;-77
2023/05/28 07:33:06;;;;;;;80.60;2.43;;;19.20;33.50;;;;;;5073226;28;20428;-75
2023/05/28 07:35:32;;;;;;;79.97;2.50;;;19.50;31.50;;;;;;5073979;28;20419;-75
2023/05/28 07:37:58;;;;;;;81.37;3.13;;;19.20;32.50;;;;;;5073981;28;20669;-75
2023/05/28 07:40:23;;;;;;;80.67;2.70;;;19.30;31.00;;;;;;5073578;28;20172;-75
2023/05/28 07:42:49;;;;;;;79.87;2.47;;;19.90;30.60;;;;;;5074837;28;20207;-75
2023/05/28 07:45:15;;;;;;;79.27;2.37;;;19.90;29.10;;;;;;5075460;28;20490;-75
2023/05/28 07:47:40;;;;;;;79.87;2.93;;;20.10;29.70;;;;;;5072802;28;20418;-77
2023/05/28 07:50:07;;;;;;;79.10;2.27;;;20.20;29.60;;;;;;5074051;28;20178;-77
2023/05/28 07:52:33;;;;;;;89.43;3.60;;;20.70;28.90;;;;;;5073423;28;20183;-77
2023/05/28 07:54:59;;;;;;;80.20;2.57;;;21.20;27.20;;;;;;5074664;28;20467;-77
2023/05/28 07:57:25;;;;;;;79.27;2.37;;;20.70;26.80;;;;;;5074183;28;20168;-77
2023/05/28 07:59:51;;;;;;;78.67;2.00;;;20.80;27.90;;;;;;5073955;28;20410;-77
2023/05/28 08:02:17;;;;;;;79.70;3.00;;;20.50;27.00;;;;;;5072360;28;20222;-77
2023/05/28 08:04:43;;;;;;;79.73;2.77;;;20.40;28.30;;;;;;5072996;28;20532;-77
2023/05/28 08:07:12;;;;;;;78.90;2.40;;;21.10;28.00;;;;;;5073185;28;20540;-77
2023/05/28 08:09:40;;;;;;;80.07;2.50;;;20.60;26.70;;;;;;5073893;28;20540;-77
2023/05/28 08:12:06;;;;;;;78.70;2.30;;;20.60;27.00;;;;;;5073560;28;20465;-77
2023/05/28 08:14:32;;;;;;;78.77;2.40;;;20.40;27.00;;;;;;5074578;28;20476;-77
2023/05/28 08:16:57;;;;;;;82.47;3.00;;;20.70;28.70;;;;;;5073568;28;20450;-77
2023/05/28 08:19:23;;;;;;;78.67;2.60;;;21.50;27.00;;;;;;5073997;28;20177;-78
2023/05/28 08:21:49;;;;;;;78.10;2.07;;;22.10;26.30;;;;;;5073223;28;20238;-78
2023/05/28 08:24:16;;;;;;;79.63;2.70;;;22.10;26.40;;;;;;5073037;28;20170;-78
2023/05/28 08:26:42;;;;;;;77.87;2.23;;;22.20;25.90;;;;;;5073558;28;20555;-77
2023/05/28 08:29:08;;;;;;;78.17;2.40;;;22.00;27.00;;;;;;5073332;28;20408;-78
2023/05/28 08:31:33;;;;;;;78.57;2.70;;;21.60;27.10;;;;;;5073523;28;20164;-77
2023/05/28 08:33:59;;;;;;;77.70;2.60;;;21.80;27.30;;;;;;5072897;28;20198;-78
2023/05/28 08:36:25;;;;;;;77.77;2.40;;;22.40;28.30;;;;;;5073754;28;20171;-77
2023/05/28 08:38:50;;;;;;;79.40;3.13;;;22.80;26.40;;;;;;5073214;28;20249;-77
2023/05/28 08:41:16;;;;;;;81.70;3.90;;;22.30;26.50;;;;;;5072980;28;20171;-78
2023/05/28 08:43:42;;;;;;;77.87;2.60;;;21.70;27.50;;;;;;5072814;28;20198;-78
2023/05/28 08:46:08;;;;;;;78.20;2.60;;;22.40;28.60;;;;;;5073382;28;20289;-78
2023/05/28 08:48:35;;;;;;;77.97;2.80;;;23.10;26.10;;;;;;5073105;28;20490;-78
2023/05/28 08:51:01;;;;;;;81.60;2.87;;;23.30;25.00;;;;;;5073915;28;20179;-78
2023/05/28 08:53:30;;;;;;;77.20;2.20;;;23.50;24.50;;;;;;5072588;28;20433;-78
2023/05/28 08:55:56;;;;;;;77.57;2.40;;;23.60;24.30;;;;;;5073566;28;20465;-78
2023/05/28 08:58:21;;;;;;;78.20;2.60;;;23.30;24.20;;;;;;5072804;28;20811;-77
2023/05/28 09:00:48;;;;;;;77.37;2.47;;;22.50;24.80;;;;;;5072818;28;20511;-78
2023/05/28 09:03:13;;;;;;;78.10;2.60;;;22.60;25.50;;;;;;5072590;28;20200;-78
2023/05/28 09:05:39;;;;;;;76.90;2.00;;;22.90;26.10;;;;;;5072695;28;20450;-78
2023/05/28 09:08:07;;;;;;;76.77;2.10;;;23.40;25.00;;;;;;5072589;28;20256;-78
2023/05/28 09:10:34;;;;;;;78.43;2.57;;;23.60;24.80;;;;;;5073324;28;20175;-77
2023/05/28 09:13:00;;;;;;;77.33;2.43;;;23.90;23.30;;;;;;5072114;28;20435;-78
2023/05/28 09:15:27;;;;;;;77.30;2.23;;;23.20;23.90;;;;;;5072644;28;20972;-77
2023/05/28 09:17:53;;;;;;;77.40;2.50;;;22.70;24.60;;;;;;5073167;28;20907;-78
2023/05/28 09:20:19;;;;;;;77.23;2.60;;;22.80;25.40;;;;;;5073760;28;20424;-78
2023/05/28 09:22:45;;;;;;;77.07;2.40;;;23.30;25.20;;;;;;5071834;28;20213;-77
2023/05/28 09:25:11;;;;;;;77.27;2.50;;;23.10;24.80;;;;;;5073137;28;20448;-78
2023/05/28 09:27:37;;;;;;;77.23;2.40;;;23.70;24.50;;;;;;5073699;28;20445;-78
2023/05/28 09:30:12;;;;;;;77.93;2.60;;;24.00;23.10;;;;;;5072745;28;20398;-78
2023/05/28 09:32:38;;;;;;;76.73;2.40;;;24.60;24.70;;;;;;5072987;28;20209;-77
2023/05/28 09:35:07;;;;;;;82.23;4.40;;;25.10;23.60;;;;;;5073273;28;20935;-78
2023/05/28 09:37:39;;;;;;;77.57;2.60;;;25.10;22.30;;;;;;5073358;28;20514;-77
2023/05/28 09:40:10;;;;;;;76.87;2.60;;;25.20;22.10;;;;;;5074083;28;20385;-78
2023/05/28 09:42:43;;;;;;;76.70;2.50;;;25.30;21.20;;;;;;5072649;28;20433;-78
2023/05/28 09:45:10;;;;;;;77.07;2.50;;;25.40;22.40;;;;;;5071743;28;20492;-77
2023/05/28 09:47:46;;;;;;;78.50;3.27;;;25.20;22.50;;;;;;5073726;28;20481;-77
2023/05/28 09:50:12;;;;;;;76.43;2.50;;;25.10;21.20;;;;;;5073714;28;20492;-78
2023/05/28 09:52:40;;;;;;;76.07;2.40;;;25.00;21.90;;;;;;5072341;28;20512;-78
2023/05/28 09:55:07;;;;;;;78.13;2.57;;;25.30;21.70;;;;;;5073687;28;20783;-78
2023/05/28 09:57:35;;;;;;;76.23;2.00;;;25.30;21.60;;;;;;5073397;28;20417;-78
2023/05/28 10:00:12;;;;;;;76.47;2.40;;;25.50;22.40;;;;;;5073035;28;20427;-78
2023/05/28 10:03:10;;;;;;;75.90;2.50;;;25.70;21.90;;;;;;5072950;28;20441;-78
2023/05/28 10:05:37;;;;;;;75.90;2.30;;;25.80;21.10;;;;;;5061976;28;20456;-78
2023/05/28 10:08:04;;;;;;;76.37;2.60;;;26.20;20.20;;;;;;5077352;28;20786;-78
2023/05/28 10:10:31;;;;;;;75.80;2.23;;;26.40;20.90;;;;;;5074796;28;20405;-78
2023/05/28 10:12:58;;;;;;;76.50;2.50;;;26.00;20.40;;;;;;5074277;28;20417;-77
2023/05/28 10:15:24;;;;;;;75.53;2.27;;;26.10;20.70;;;;;;5075358;28;20415;-77
2023/05/28 10:17:53;;;;;;;75.10;1.93;;;26.50;20.90;;;;;;5074508;28;20912;-77
2023/05/28 10:20:19;;;;;;;75.93;2.27;;;26.90;20.50;;;;;;5046366;28;20426;-77
2023/05/28 10:22:45;;;;;;;75.20;2.17;;;27.10;20.30;;;;;;5043483;28;20465;-78
2023/05/28 10:25:11;;;;;;;76.77;2.33;;;26.70;19.40;;;;;;5056083;28;20449;-77
2023/05/28 10:27:44;;;;;;;76.37;2.60;;;25.50;21.20;;;;;;5039993;28;20403;-79
2023/05/28 10:30:12;;;;;;;74.90;2.07;;;26.10;21.60;;;;;;5038286;28;20395;-79
2023/05/28 10:32:43;;;;;;;74.97;2.17;;;26.50;20.50;;;;;;5034675;28;20946;-78
2023/05/28 10:35:15;;;;;;;75.43;2.40;;;26.70;19.20;;;;;;5033962;28;20418;-79
2023/05/28 10:37:40;;;;;;;76.07;2.27;;;26.20;20.10;;;;;;5033114;28;20408;-78
2023/05/28 10:40:09;;;;;;;75.10;2.27;;;26.70;19.90;;;;;;5032600;28;20422;-79
2023/05/28 10:42:41;;;;;;;75.07;2.40;;;26.70;19.10;;;;;;5037503;28;20196;-78
2023/05/28 10:45:09;;;;;;;75.00;2.57;;;26.80;18.50;;;;;;5042778;28;20533;-79
2023/05/28 10:47:51;;;;;;;74.53;2.10;;;26.70;18.50;;;;;;5036787;28;20886;-78
2023/05/28 10:50:18;;;;;;;74.77;2.40;;;27.40;19.80;;;;;;5035824;28;20399;-77
2023/05/28 10:53:07;;;;;;;74.17;2.20;;;26.40;19.90;;;;;;5034424;28;20426;-77
2023/05/28 10:55:50;;;;;;;74.17;2.03;;;27.30;17.80;;;;;;5043091;28;20508;-76
2023/05/28 10:58:25;;;;;;;74.07;2.00;;;27.80;18.40;;;;;;5055445;28;20410;-77
2023/05/28 11:00:51;;;;;;;73.97;2.00;;;28.00;16.80;;;;;;5055487;28;20931;-77
2023/05/28 11:03:16;;;;;;;74.57;1.97;;;27.60;17.20;;;;;;5053294;28;20422;-78
2023/05/28 11:05:43;;;;;;;74.40;2.27;;;27.40;17.90;;;;;;5054618;28;20202;-77
2023/05/28 11:08:09;;;;;;;74.17;2.50;;;27.70;17.30;;;;;;5048745;28;20176;-77
2023/05/28 11:10:35;;;;;;;74.17;2.50;;;28.20;16.00;;;;;;5035077;28;20414;-77
2023/05/28 11:13:01;;;;;;;73.30;2.07;;;28.30;15.20;;;;;;5035254;28;20224;-77
2023/05/28 11:15:27;;;;;;;73.50;2.40;;;28.40;17.20;;;;;;5034529;28;20176;-77
2023/05/28 11:17:53;;;;;;;73.10;2.00;;;28.60;16.40;;;;;;5035492;28;20419;-77
2023/05/28 11:20:27;;;;;;;73.50;2.30;;;28.90;14.80;;;;;;5034299;28;20177;-79
2023/05/28 11:22:54;;;;;;;72.47;1.90;;;28.00;17.40;;;;;;5033400;28;20218;-79
2023/05/28 11:25:25;;;;;;;72.90;2.30;;;28.80;16.20;;;;;;5032853;28;21078;-77
2023/05/28 11:27:53;;;;;;;72.93;1.90;;;29.50;15.00;;;;;;5034251;28;20472;-79
2023/05/28 11:30:19;;;;;;;72.90;2.27;;;30.30;14.30;;;;;;5035556;28;20403;-78
2023/05/28 11:32:46;;;;;;;73.80;2.50;;;31.60;15.10;;;;;;5033319;28;20484;-79
2023/05/28 11:35:16;;;;;;;73.67;2.30;;;32.60;11.30;;;;;;5034914;28;20429;-78
2023/05/28 11:37:43;;;;;;;72.17;2.00;;;33.50;10.30;;;;;;5035266;28;20395;-79
2023/05/28 11:40:12;;;;;;;71.50;1.97;;;32.30;10.10;;;;;;5035271;28;20910;-78
2023/05/28 11:42:39;;;;;;;70.57;1.90;;;32.60;11.20;;;;;;5034391;28;20809;-79
2023/05/28 11:45:06;;;;;;;69.97;1.83;;;33.70;9.40;;;;;;5033434;28;20447;-78
2023/05/28 11:47:33;;;;;;;69.13;2.00;;;33.60;8.00;;;;;;5034903;28;20407;-79
2023/05/28 11:50:05;;;;;;;68.67;1.90;;;33.80;9.20;;;;;;5034376;28;20910;-78
2023/05/28 11:52:30;;;;;;;67.97;1.90;;;34.70;8.90;;;;;;5032842;28;21011;-79
2023/05/28 11:54:58;;;;;;;67.40;1.90;;;35.60;8.30;;;;;;5034526;28;20505;-79
2023/05/28 11:57:28;;;;;;;66.87;2.00;;;35.90;7.00;;;;;;5034901;28;20242;-78
2023/05/28 11:59:55;;;;;;;67.20;2.03;;;35.30;5.70;;;;;;5033228;28;20898;-79
2023/05/28 12:02:22;;;;;;;65.00;2.13;;;35.40;5.70;;;;;;5034303;28;20431;-79
2023/05/28 12:05:04;;;;;;;63.23;1.83;;;36.00;6.80;;;;;;5033880;28;20942;-80
2023/05/28 12:07:34;;;;;;;62.60;2.07;;;35.00;8.10;;;;;;5034604;28;20390;-78
2023/05/28 12:10:09;;;;;;;63.00;2.60;;;36.50;7.40;;;;;;5035077;28;20408;-79
2023/05/28 12:12:42;;;;;;;61.80;2.00;;;35.00;4.80;;;;;;5034852;28;20422;-79
2023/05/28 12:15:08;;;;;;;61.53;1.80;;;35.10;6.20;;;;;;5033753;28;20411;-79
2023/05/28 12:17:38;;;;;;;60.40;1.60;;;36.10;4.70;;;;;;5032462;28;20508;-79
2023/05/28 12:20:13;;;;;;;60.50;1.80;;;36.30;5.10;;;;;;5033549;28;20443;-79
2023/05/28 12:22:39;;;;;;;60.90;1.90;;;36.80;6.40;;;;;;5032665;28;20472;-79
2023/05/28 12:25:06;;;;;;;60.30;1.80;;;37.90;5.70;;;;;;5033420;28;20558;-79
2023/05/28 12:27:32;;;;;;;59.60;1.67;;;37.40;3.60;;;;;;5033456;28;20407;-79
2023/05/28 12:29:58;;;;;;;60.23;2.10;;;35.60;5.90;;;;;;5033334;28;20461;-78
2023/05/28 12:32:24;;;;;;;58.97;1.70;;;36.30;5.60;;;;;;5033416;28;20192;-79
2023/05/28 12:34:51;;;;;;;58.67;1.83;;;37.10;4.00;;;;;;5032697;28;20176;-79
2023/05/28 12:37:17;;;;;;;58.47;1.80;;;37.50;5.50;;;;;;5033199;28;20180;-80